sensor_id;sensor_type;location;lat;lon;timestamp;temperature;humidity
5009;DHT22;2523;51.058;6.922;2023-03-31T00:00:45;11.40;1.00
5009;DHT22;2523;51.058;6.922;2023-03-31T00:03:14;11.50;1.00
5009;DHT22;2523;51.058;6.922;2023-03-31T00:05:46;11.50;1.00
5009;DHT22;2523;51.058;6.922;2023-03-31T00:08:12;11.50;1.00
5009;DHT22;2523;51.058;6.922;2023-03-31T00:10:44;11.50;1.00
5009;DHT22;2523;51.058;6.922;2023-03-31T00:13:10;11.50;1.00
5009;DHT22;2523;51.058;6.922;2023-03-31T00:15:36;11.40;1.00
5009;DHT22;2523;51.058;6.922;2023-03-31T00:18:02;11.50;1.00
5009;DHT22;2523;51.058;6.922;2023-03-31T00:20:27;11.50;1.00
5009;DHT22;2523;51.058;6.922;2023-03-31T00:22:53;11.50;1.00
5009;DHT22;2523;51.058;6.922;2023-03-31T00:25:19;11.50;1.00
5009;DHT22;2523;51.058;6.922;2023-03-31T00:27:45;11.50;1.00
5009;DHT22;2523;51.058;6.922;2023-03-31T00:30:14;11.50;18.40
5009;DHT22;2523;51.058;6.922;2023-03-31T00:32:40;11.50;53.00
5009;DHT22;2523;51.058;6.922;2023-03-31T00:35:05;11.50;99.90
5009;DHT22;2523;51.058;6.922;2023-03-31T00:37:31;11.40;1.00
5009;DHT22;2523;51.058;6.922;2023-03-31T00:40:00;11.40;1.00
5009;DHT22;2523;51.058;6.922;2023-03-31T00:42:25;11.30;1.00
5009;DHT22;2523;51.058;6.922;2023-03-31T00:47:40;11.20;1.00
5009;DHT22;2523;51.058;6.922;2023-03-31T00:50:27;11.20;1.00
5009;DHT22;2523;51.058;6.922;2023-03-31T00:53:11;11.20;1.00
5009;DHT22;2523;51.058;6.922;2023-03-31T00:55:43;11.20;1.00
5009;DHT22;2523;51.058;6.922;2023-03-31T00:58:10;11.20;99.90
5009;DHT22;2523;51.058;6.922;2023-03-31T01:00:41;11.10;99.90
5009;DHT22;2523;51.058;6.922;2023-03-31T01:03:07;11.10;99.90
5009;DHT22;2523;51.058;6.922;2023-03-31T01:05:44;11.00;99.90
5009;DHT22;2523;51.058;6.922;2023-03-31T01:08:13;10.90;99.90
5009;DHT22;2523;51.058;6.922;2023-03-31T01:10:44;10.90;99.90
5009;DHT22;2523;51.058;6.922;2023-03-31T01:13:12;10.90;99.90
5009;DHT22;2523;51.058;6.922;2023-03-31T01:15:38;10.90;99.90
5009;DHT22;2523;51.058;6.922;2023-03-31T01:18:08;10.90;99.90
5009;DHT22;2523;51.058;6.922;2023-03-31T01:20:55;10.90;99.90
5009;DHT22;2523;51.058;6.922;2023-03-31T01:24:16;10.90;99.90
5009;DHT22;2523;51.058;6.922;2023-03-31T01:26:55;10.80;99.90
5009;DHT22;2523;51.058;6.922;2023-03-31T01:38:06;10.80;99.90
5009;DHT22;2523;51.058;6.922;2023-03-31T01:43:58;10.80;99.90
5009;DHT22;2523;51.058;6.922;2023-03-31T01:46:31;10.80;99.90
5009;DHT22;2523;51.058;6.922;2023-03-31T01:54:43;10.80;99.90
5009;DHT22;2523;51.058;6.922;2023-03-31T01:57:19;10.90;99.90
5009;DHT22;2523;51.058;6.922;2023-03-31T02:00:11;10.90;99.90
5009;DHT22;2523;51.058;6.922;2023-03-31T02:02:57;11.00;99.90
5009;DHT22;2523;51.058;6.922;2023-03-31T02:05:27;11.00;99.90
5009;DHT22;2523;51.058;6.922;2023-03-31T02:08:03;11.00;99.90
5009;DHT22;2523;51.058;6.922;2023-03-31T02:10:31;11.00;99.90
5009;DHT22;2523;51.058;6.922;2023-03-31T02:12:59;11.00;99.90
5009;DHT22;2523;51.058;6.922;2023-03-31T02:15:29;11.00;99.90
5009;DHT22;2523;51.058;6.922;2023-03-31T02:17:57;11.00;99.90
5009;DHT22;2523;51.058;6.922;2023-03-31T02:20:26;10.90;99.90
5009;DHT22;2523;51.058;6.922;2023-03-31T02:22:55;10.90;99.90
5009;DHT22;2523;51.058;6.922;2023-03-31T02:25:24;10.90;99.90
5009;DHT22;2523;51.058;6.922;2023-03-31T02:27:56;10.90;99.90
5009;DHT22;2523;51.058;6.922;2023-03-31T02:30:28;10.90;99.90
5009;DHT22;2523;51.058;6.922;2023-03-31T02:32:57;10.80;99.90
5009;DHT22;2523;51.058;6.922;2023-03-31T02:35:24;10.80;99.90
5009;DHT22;2523;51.058;6.922;2023-03-31T02:37:49;10.80;99.90
5009;DHT22;2523;51.058;6.922;2023-03-31T02:40:20;10.80;99.90
5009;DHT22;2523;51.058;6.922;2023-03-31T02:42:46;10.80;99.90
5009;DHT22;2523;51.058;6.922;2023-03-31T02:45:38;10.80;99.90
5009;DHT22;2523;51.058;6.922;2023-03-31T02:48:07;10.70;99.90
5009;DHT22;2523;51.058;6.922;2023-03-31T02:50:50;10.80;99.90
5009;DHT22;2523;51.058;6.922;2023-03-31T02:58:47;10.70;99.90
5009;DHT22;2523;51.058;6.922;2023-03-31T03:12:44;10.70;99.90
5009;DHT22;2523;51.058;6.922;2023-03-31T03:15:17;10.70;99.90
5009;DHT22;2523;51.058;6.922;2023-03-31T03:17:46;10.70;99.90
5009;DHT22;2523;51.058;6.922;2023-03-31T03:20:14;10.70;99.90
5009;DHT22;2523;51.058;6.922;2023-03-31T03:22:41;10.70;99.90
5009;DHT22;2523;51.058;6.922;2023-03-31T03:25:11;10.70;99.90
5009;DHT22;2523;51.058;6.922;2023-03-31T03:27:38;10.70;99.90
5009;DHT22;2523;51.058;6.922;2023-03-31T03:30:05;10.70;99.90
5009;DHT22;2523;51.058;6.922;2023-03-31T03:32:31;10.70;99.90
5009;DHT22;2523;51.058;6.922;2023-03-31T03:35:01;10.70;99.90
5009;DHT22;2523;51.058;6.922;2023-03-31T03:37:27;10.70;99.90
5009;DHT22;2523;51.058;6.922;2023-03-31T03:39:53;10.70;99.90
5009;DHT22;2523;51.058;6.922;2023-03-31T03:42:19;10.70;99.90
5009;DHT22;2523;51.058;6.922;2023-03-31T03:44:44;10.70;99.90
5009;DHT22;2523;51.058;6.922;2023-03-31T03:47:10;10.70;99.90
5009;DHT22;2523;51.058;6.922;2023-03-31T03:49:36;10.70;99.90
5009;DHT22;2523;51.058;6.922;2023-03-31T03:52:02;10.60;99.90
5009;DHT22;2523;51.058;6.922;2023-03-31T03:54:27;10.60;99.90
5009;DHT22;2523;51.058;6.922;2023-03-31T03:56:53;10.70;99.90
5009;DHT22;2523;51.058;6.922;2023-03-31T03:59:18;10.70;99.90
5009;DHT22;2523;51.058;6.922;2023-03-31T04:01:44;10.70;99.90
5009;DHT22;2523;51.058;6.922;2023-03-31T04:04:09;10.80;99.90
5009;DHT22;2523;51.058;6.922;2023-03-31T04:06:35;10.80;99.90
5009;DHT22;2523;51.058;6.922;2023-03-31T04:09:01;10.80;99.90
5009;DHT22;2523;51.058;6.922;2023-03-31T04:11:27;10.80;99.90
5009;DHT22;2523;51.058;6.922;2023-03-31T04:13:52;10.90;99.90
5009;DHT22;2523;51.058;6.922;2023-03-31T04:16:18;10.90;99.90
5009;DHT22;2523;51.058;6.922;2023-03-31T04:18:44;10.90;99.90
5009;DHT22;2523;51.058;6.922;2023-03-31T04:21:11;10.90;99.90
5009;DHT22;2523;51.058;6.922;2023-03-31T04:23:40;10.90;99.90
5009;DHT22;2523;51.058;6.922;2023-03-31T04:26:13;10.90;99.90
5009;DHT22;2523;51.058;6.922;2023-03-31T04:28:40;11.00;99.90
5009;DHT22;2523;51.058;6.922;2023-03-31T04:31:10;11.00;99.90
5009;DHT22;2523;51.058;6.922;2023-03-31T04:33:40;10.90;99.90
5009;DHT22;2523;51.058;6.922;2023-03-31T04:36:06;10.90;99.90
5009;DHT22;2523;51.058;6.922;2023-03-31T04:38:46;10.90;99.90
5009;DHT22;2523;51.058;6.922;2023-03-31T04:41:18;10.90;99.90
5009;DHT22;2523;51.058;6.922;2023-03-31T04:43:44;10.90;99.90
5009;DHT22;2523;51.058;6.922;2023-03-31T04:46:10;10.90;99.90
5009;DHT22;2523;51.058;6.922;2023-03-31T04:48:35;10.90;99.90
5009;DHT22;2523;51.058;6.922;2023-03-31T04:51:01;10.90;99.90
5009;DHT22;2523;51.058;6.922;2023-03-31T04:53:27;10.80;99.90
5009;DHT22;2523;51.058;6.922;2023-03-31T04:55:53;10.80;99.90
5009;DHT22;2523;51.058;6.922;2023-03-31T04:58:18;10.90;99.90
5009;DHT22;2523;51.058;6.922;2023-03-31T05:00:44;10.80;99.90
5009;DHT22;2523;51.058;6.922;2023-03-31T05:03:10;10.80;99.90
5009;DHT22;2523;51.058;6.922;2023-03-31T05:05:36;10.70;99.90
5009;DHT22;2523;51.058;6.922;2023-03-31T05:08:02;10.80;99.90
5009;DHT22;2523;51.058;6.922;2023-03-31T05:10:29;10.70;99.90
5009;DHT22;2523;51.058;6.922;2023-03-31T05:12:54;10.70;99.90
5009;DHT22;2523;51.058;6.922;2023-03-31T05:15:20;10.70;99.90
5009;DHT22;2523;51.058;6.922;2023-03-31T05:17:46;10.70;99.90
5009;DHT22;2523;51.058;6.922;2023-03-31T05:20:12;10.70;99.90
5009;DHT22;2523;51.058;6.922;2023-03-31T05:22:39;10.70;99.90
5009;DHT22;2523;51.058;6.922;2023-03-31T05:25:06;10.80;99.90
5009;DHT22;2523;51.058;6.922;2023-03-31T05:27:32;10.70;99.90
5009;DHT22;2523;51.058;6.922;2023-03-31T05:29:58;10.80;99.90
5009;DHT22;2523;51.058;6.922;2023-03-31T05:32:25;10.80;99.90
5009;DHT22;2523;51.058;6.922;2023-03-31T05:34:51;10.80;99.90
5009;DHT22;2523;51.058;6.922;2023-03-31T05:37:19;10.80;99.90
5009;DHT22;2523;51.058;6.922;2023-03-31T05:39:45;10.90;99.90
5009;DHT22;2523;51.058;6.922;2023-03-31T05:42:11;10.90;99.90
5009;DHT22;2523;51.058;6.922;2023-03-31T05:44:36;10.90;99.90
5009;DHT22;2523;51.058;6.922;2023-03-31T05:47:02;10.90;99.90
5009;DHT22;2523;51.058;6.922;2023-03-31T05:49:27;10.90;99.90
5009;DHT22;2523;51.058;6.922;2023-03-31T05:51:53;10.90;99.90
5009;DHT22;2523;51.058;6.922;2023-03-31T05:54:19;10.90;99.90
5009;DHT22;2523;51.058;6.922;2023-03-31T05:56:44;10.90;99.90
5009;DHT22;2523;51.058;6.922;2023-03-31T05:59:10;10.90;99.90
5009;DHT22;2523;51.058;6.922;2023-03-31T06:01:35;10.90;99.90
5009;DHT22;2523;51.058;6.922;2023-03-31T06:04:01;10.80;99.90
5009;DHT22;2523;51.058;6.922;2023-03-31T06:06:26;10.80;99.90
5009;DHT22;2523;51.058;6.922;2023-03-31T06:08:52;10.80;99.90
5009;DHT22;2523;51.058;6.922;2023-03-31T06:11:19;10.80;99.90
5009;DHT22;2523;51.058;6.922;2023-03-31T06:13:46;10.80;99.90
5009;DHT22;2523;51.058;6.922;2023-03-31T06:16:13;10.80;99.90
5009;DHT22;2523;51.058;6.922;2023-03-31T06:18:39;10.70;99.90
5009;DHT22;2523;51.058;6.922;2023-03-31T06:21:05;10.70;99.90
5009;DHT22;2523;51.058;6.922;2023-03-31T06:23:32;10.70;99.90
5009;DHT22;2523;51.058;6.922;2023-03-31T06:26:05;10.60;99.90
5009;DHT22;2523;51.058;6.922;2023-03-31T06:28:33;10.60;99.90
5009;DHT22;2523;51.058;6.922;2023-03-31T06:31:02;10.60;99.90
5009;DHT22;2523;51.058;6.922;2023-03-31T06:33:28;10.60;99.90
5009;DHT22;2523;51.058;6.922;2023-03-31T06:35:57;10.60;99.90
5009;DHT22;2523;51.058;6.922;2023-03-31T06:38:24;10.60;99.90
5009;DHT22;2523;51.058;6.922;2023-03-31T06:40:49;10.60;99.90
5009;DHT22;2523;51.058;6.922;2023-03-31T06:43:15;10.50;99.90
5009;DHT22;2523;51.058;6.922;2023-03-31T06:45:40;10.50;99.90
5009;DHT22;2523;51.058;6.922;2023-03-31T06:48:06;10.50;99.90
5009;DHT22;2523;51.058;6.922;2023-03-31T06:50:31;10.40;99.90
5009;DHT22;2523;51.058;6.922;2023-03-31T06:52:57;10.40;99.90
5009;DHT22;2523;51.058;6.922;2023-03-31T06:55:23;10.40;99.90
5009;DHT22;2523;51.058;6.922;2023-03-31T06:57:49;10.40;99.90
5009;DHT22;2523;51.058;6.922;2023-03-31T07:00:14;10.40;99.90
5009;DHT22;2523;51.058;6.922;2023-03-31T07:02:40;10.40;99.90
5009;DHT22;2523;51.058;6.922;2023-03-31T07:05:06;10.40;99.90
5009;DHT22;2523;51.058;6.922;2023-03-31T07:07:32;10.40;99.90
5009;DHT22;2523;51.058;6.922;2023-03-31T07:09:58;10.50;99.90
5009;DHT22;2523;51.058;6.922;2023-03-31T07:12:23;10.50;99.90
5009;DHT22;2523;51.058;6.922;2023-03-31T07:14:49;10.70;99.90
5009;DHT22;2523;51.058;6.922;2023-03-31T07:17:15;10.80;99.90
5009;DHT22;2523;51.058;6.922;2023-03-31T07:19:40;10.80;99.90
5009;DHT22;2523;51.058;6.922;2023-03-31T07:22:07;10.80;99.90
5009;DHT22;2523;51.058;6.922;2023-03-31T07:24:33;10.90;99.90
5009;DHT22;2523;51.058;6.922;2023-03-31T07:26:58;11.00;99.90
5009;DHT22;2523;51.058;6.922;2023-03-31T07:29:24;11.10;99.90
5009;DHT22;2523;51.058;6.922;2023-03-31T07:31:50;11.10;99.90
5009;DHT22;2523;51.058;6.922;2023-03-31T07:34:15;11.30;99.90
5009;DHT22;2523;51.058;6.922;2023-03-31T07:36:41;11.30;99.90
5009;DHT22;2523;51.058;6.922;2023-03-31T07:39:07;11.40;99.90
5009;DHT22;2523;51.058;6.922;2023-03-31T07:41:32;11.50;99.90
5009;DHT22;2523;51.058;6.922;2023-03-31T07:43:58;11.60;99.90
5009;DHT22;2523;51.058;6.922;2023-03-31T07:46:27;11.70;99.90
5009;DHT22;2523;51.058;6.922;2023-03-31T07:48:54;11.80;99.90
5009;DHT22;2523;51.058;6.922;2023-03-31T07:51:23;11.90;99.90
5009;DHT22;2523;51.058;6.922;2023-03-31T07:53:50;12.10;99.90
5009;DHT22;2523;51.058;6.922;2023-03-31T07:56:18;12.30;1.00
5009;DHT22;2523;51.058;6.922;2023-03-31T07:58:44;12.60;80.00
5009;DHT22;2523;51.058;6.922;2023-03-31T08:01:16;12.60;1.00
5009;DHT22;2523;51.058;6.922;2023-03-31T08:03:43;12.70;1.00
5009;DHT22;2523;51.058;6.922;2023-03-31T08:06:08;12.80;1.00
5009;DHT22;2523;51.058;6.922;2023-03-31T08:08:34;12.80;99.90
5009;DHT22;2523;51.058;6.922;2023-03-31T08:11:03;12.80;99.90
5009;DHT22;2523;51.058;6.922;2023-03-31T08:13:28;12.80;99.90
5009;DHT22;2523;51.058;6.922;2023-03-31T08:15:54;12.80;99.90
5009;DHT22;2523;51.058;6.922;2023-03-31T08:18:20;12.70;99.90
5009;DHT22;2523;51.058;6.922;2023-03-31T08:20:45;12.70;99.90
5009;DHT22;2523;51.058;6.922;2023-03-31T08:23:14;12.60;93.40
5009;DHT22;2523;51.058;6.922;2023-03-31T08:25:40;12.60;35.70
5009;DHT22;2523;51.058;6.922;2023-03-31T08:28:05;12.60;28.60
5009;DHT22;2523;51.058;6.922;2023-03-31T08:30:36;12.60;99.90
5009;DHT22;2523;51.058;6.922;2023-03-31T08:33:02;12.70;99.90
5009;DHT22;2523;51.058;6.922;2023-03-31T08:35:28;12.80;99.90
5009;DHT22;2523;51.058;6.922;2023-03-31T08:37:53;12.90;99.90
5009;DHT22;2523;51.058;6.922;2023-03-31T08:40:22;12.90;2.40
5009;DHT22;2523;51.058;6.922;2023-03-31T08:42:50;13.00;99.90
5009;DHT22;2523;51.058;6.922;2023-03-31T08:47:49;13.00;1.00
5009;DHT22;2523;51.058;6.922;2023-03-31T08:50:19;13.00;1.00
5009;DHT22;2523;51.058;6.922;2023-03-31T08:52:55;13.00;1.00
5009;DHT22;2523;51.058;6.922;2023-03-31T08:55:28;13.10;1.00
5009;DHT22;2523;51.058;6.922;2023-03-31T08:58:22;13.30;1.00
5009;DHT22;2523;51.058;6.922;2023-03-31T09:01:17;13.50;1.00
5009;DHT22;2523;51.058;6.922;2023-03-31T09:07:01;13.80;1.00
5009;DHT22;2523;51.058;6.922;2023-03-31T09:15:10;14.40;1.00
5009;DHT22;2523;51.058;6.922;2023-03-31T09:17:43;14.50;1.00
5009;DHT22;2523;51.058;6.922;2023-03-31T09:22:48;14.30;1.00
5009;DHT22;2523;51.058;6.922;2023-03-31T09:25:30;14.20;1.00
5009;DHT22;2523;51.058;6.922;2023-03-31T09:27:57;14.20;1.00
5009;DHT22;2523;51.058;6.922;2023-03-31T09:30:27;14.20;1.00
5009;DHT22;2523;51.058;6.922;2023-03-31T09:33:25;14.20;1.00
5009;DHT22;2523;51.058;6.922;2023-03-31T09:36:00;14.20;1.00
5009;DHT22;2523;51.058;6.922;2023-03-31T09:38:27;14.30;1.00
5009;DHT22;2523;51.058;6.922;2023-03-31T09:41:01;14.40;1.00
5009;DHT22;2523;51.058;6.922;2023-03-31T09:43:28;14.50;1.00
5009;DHT22;2523;51.058;6.922;2023-03-31T09:45:55;14.60;99.90
5009;DHT22;2523;51.058;6.922;2023-03-31T09:48:25;14.50;1.00
5009;DHT22;2523;51.058;6.922;2023-03-31T09:50:59;14.50;1.00
5009;DHT22;2523;51.058;6.922;2023-03-31T09:53:53;14.50;1.00
5009;DHT22;2523;51.058;6.922;2023-03-31T09:59:17;15.00;1.00
5009;DHT22;2523;51.058;6.922;2023-03-31T10:01:45;15.30;99.90
5009;DHT22;2523;51.058;6.922;2023-03-31T10:04:23;15.60;99.90
5009;DHT22;2523;51.058;6.922;2023-03-31T10:06:50;15.60;99.90
5009;DHT22;2523;51.058;6.922;2023-03-31T10:09:18;15.50;99.90
5009;DHT22;2523;51.058;6.922;2023-03-31T10:12:15;15.50;99.90
5009;DHT22;2523;51.058;6.922;2023-03-31T10:14:52;15.50;99.90
5009;DHT22;2523;51.058;6.922;2023-03-31T10:17:23;15.50;99.90
5009;DHT22;2523;51.058;6.922;2023-03-31T10:19:57;15.20;99.90
5009;DHT22;2523;51.058;6.922;2023-03-31T10:22:29;14.90;99.90
5009;DHT22;2523;51.058;6.922;2023-03-31T10:25:09;14.80;99.90
5009;DHT22;2523;51.058;6.922;2023-03-31T10:27:38;14.90;1.00
5009;DHT22;2523;51.058;6.922;2023-03-31T10:30:09;15.00;99.90
5009;DHT22;2523;51.058;6.922;2023-03-31T10:32:40;15.10;99.90
5009;DHT22;2523;51.058;6.922;2023-03-31T10:35:23;15.30;99.90
5009;DHT22;2523;51.058;6.922;2023-03-31T10:37:54;15.60;99.90
5009;DHT22;2523;51.058;6.922;2023-03-31T10:40:23;15.80;99.90
5009;DHT22;2523;51.058;6.922;2023-03-31T10:45:37;16.30;99.90
5009;DHT22;2523;51.058;6.922;2023-03-31T10:48:22;16.10;99.90
5009;DHT22;2523;51.058;6.922;2023-03-31T10:50:48;15.80;99.90
5009;DHT22;2523;51.058;6.922;2023-03-31T10:53:15;15.50;99.90
5009;DHT22;2523;51.058;6.922;2023-03-31T11:05:07;13.60;1.00
5009;DHT22;2523;51.058;6.922;2023-03-31T11:08:12;13.20;1.00
5009;DHT22;2523;51.058;6.922;2023-03-31T11:16:59;12.10;1.00
5009;DHT22;2523;51.058;6.922;2023-03-31T11:25:51;11.30;1.00
5009;DHT22;2523;51.058;6.922;2023-03-31T11:28:31;11.30;99.90
5009;DHT22;2523;51.058;6.922;2023-03-31T11:34:12;11.60;99.90
5009;DHT22;2523;51.058;6.922;2023-03-31T11:37:09;11.80;1.00
5009;DHT22;2523;51.058;6.922;2023-03-31T11:43:23;12.10;1.00
5009;DHT22;2523;51.058;6.922;2023-03-31T11:46:14;12.30;1.00
5009;DHT22;2523;51.058;6.922;2023-03-31T11:48:53;12.40;1.00
5009;DHT22;2523;51.058;6.922;2023-03-31T11:51:31;12.50;1.00
5009;DHT22;2523;51.058;6.922;2023-03-31T11:54:01;12.50;1.00
5009;DHT22;2523;51.058;6.922;2023-03-31T11:56:35;12.50;1.00
5009;DHT22;2523;51.058;6.922;2023-03-31T11:59:02;12.60;99.90
5009;DHT22;2523;51.058;6.922;2023-03-31T12:02:22;12.70;99.90
5009;DHT22;2523;51.058;6.922;2023-03-31T12:04:43;12.90;1.00
5009;DHT22;2523;51.058;6.922;2023-03-31T12:07:30;13.10;1.00
5009;DHT22;2523;51.058;6.922;2023-03-31T12:10:30;13.30;99.90
5009;DHT22;2523;51.058;6.922;2023-03-31T12:15:38;13.50;99.90
5009;DHT22;2523;51.058;6.922;2023-03-31T12:18:18;13.40;99.90
5009;DHT22;2523;51.058;6.922;2023-03-31T12:20:52;13.30;99.90
5009;DHT22;2523;51.058;6.922;2023-03-31T12:23:22;13.30;1.00
5009;DHT22;2523;51.058;6.922;2023-03-31T12:28:57;13.30;1.00
5009;DHT22;2523;51.058;6.922;2023-03-31T12:31:26;13.30;99.90
5009;DHT22;2523;51.058;6.922;2023-03-31T12:34:05;13.30;1.00
5009;DHT22;2523;51.058;6.922;2023-03-31T12:37:17;13.30;1.00
5009;DHT22;2523;51.058;6.922;2023-03-31T12:40:06;13.30;1.00
5009;DHT22;2523;51.058;6.922;2023-03-31T12:43:04;13.20;1.00
5009;DHT22;2523;51.058;6.922;2023-03-31T12:45:36;12.90;99.90
5009;DHT22;2523;51.058;6.922;2023-03-31T12:51:07;12.90;99.90
5009;DHT22;2523;51.058;6.922;2023-03-31T12:53:57;13.00;99.90
5009;DHT22;2523;51.058;6.922;2023-03-31T12:56:25;13.20;99.90
5009;DHT22;2523;51.058;6.922;2023-03-31T12:58:51;13.30;99.90
5009;DHT22;2523;51.058;6.922;2023-03-31T13:01:23;13.40;99.90
5009;DHT22;2523;51.058;6.922;2023-03-31T13:04:27;13.50;99.90
5009;DHT22;2523;51.058;6.922;2023-03-31T13:06:55;13.60;99.90
5009;DHT22;2523;51.058;6.922;2023-03-31T13:11:55;13.50;99.90
5009;DHT22;2523;51.058;6.922;2023-03-31T13:14:50;13.50;99.90
5009;DHT22;2523;51.058;6.922;2023-03-31T13:19:47;13.60;19.70
5009;DHT22;2523;51.058;6.922;2023-03-31T13:22:31;13.60;1.00
5009;DHT22;2523;51.058;6.922;2023-03-31T13:27:58;13.60;1.00
5009;DHT22;2523;51.058;6.922;2023-03-31T13:33:18;13.70;1.00
5009;DHT22;2523;51.058;6.922;2023-03-31T13:35:49;13.70;1.00
5009;DHT22;2523;51.058;6.922;2023-03-31T13:58:25;14.30;1.00
5009;DHT22;2523;51.058;6.922;2023-03-31T14:01:14;14.40;1.00
5009;DHT22;2523;51.058;6.922;2023-03-31T14:04:05;14.50;1.00
5009;DHT22;2523;51.058;6.922;2023-03-31T14:06:57;14.60;1.00
5009;DHT22;2523;51.058;6.922;2023-03-31T14:09:31;14.80;1.00
5009;DHT22;2523;51.058;6.922;2023-03-31T14:11:58;14.80;99.90
5009;DHT22;2523;51.058;6.922;2023-03-31T14:14:24;14.80;99.90
5009;DHT22;2523;51.058;6.922;2023-03-31T14:30:02;14.60;99.90
5009;DHT22;2523;51.058;6.922;2023-03-31T14:32:35;14.50;99.90
5009;DHT22;2523;51.058;6.922;2023-03-31T14:37:48;14.40;99.90
5009;DHT22;2523;51.058;6.922;2023-03-31T14:40:16;14.30;99.90
5009;DHT22;2523;51.058;6.922;2023-03-31T14:42:42;14.30;99.90
5009;DHT22;2523;51.058;6.922;2023-03-31T14:45:22;14.30;99.90
5009;DHT22;2523;51.058;6.922;2023-03-31T14:48:10;14.30;99.90
5009;DHT22;2523;51.058;6.922;2023-03-31T14:50:42;14.20;99.90
5009;DHT22;2523;51.058;6.922;2023-03-31T14:53:15;14.10;99.90
5009;DHT22;2523;51.058;6.922;2023-03-31T14:55:42;14.10;99.90
5009;DHT22;2523;51.058;6.922;2023-03-31T14:58:13;14.10;99.90
5009;DHT22;2523;51.058;6.922;2023-03-31T15:00:40;14.10;99.90
5009;DHT22;2523;51.058;6.922;2023-03-31T15:03:08;14.10;99.90
5009;DHT22;2523;51.058;6.922;2023-03-31T15:05:39;14.00;99.90
5009;DHT22;2523;51.058;6.922;2023-03-31T15:08:06;14.00;99.90
5009;DHT22;2523;51.058;6.922;2023-03-31T15:10:51;14.00;99.90
5009;DHT22;2523;51.058;6.922;2023-03-31T15:13:21;13.90;99.90
5009;DHT22;2523;51.058;6.922;2023-03-31T15:15:49;13.90;99.90
5009;DHT22;2523;51.058;6.922;2023-03-31T15:18:16;13.90;99.90
5009;DHT22;2523;51.058;6.922;2023-03-31T15:20:43;13.90;99.90
5009;DHT22;2523;51.058;6.922;2023-03-31T15:23:24;13.80;99.90
5009;DHT22;2523;51.058;6.922;2023-03-31T15:25:57;13.70;1.00
5009;DHT22;2523;51.058;6.922;2023-03-31T15:28:25;13.50;1.00
5009;DHT22;2523;51.058;6.922;2023-03-31T15:30:52;13.20;1.00
5009;DHT22;2523;51.058;6.922;2023-03-31T15:33:21;13.00;99.90
5009;DHT22;2523;51.058;6.922;2023-03-31T15:35:48;12.70;1.00
5009;DHT22;2523;51.058;6.922;2023-03-31T15:38:14;12.60;1.00
5009;DHT22;2523;51.058;6.922;2023-03-31T15:40:42;12.50;1.00
5009;DHT22;2523;51.058;6.922;2023-03-31T15:43:29;12.30;99.90
5009;DHT22;2523;51.058;6.922;2023-03-31T15:45:59;12.20;1.00
5009;DHT22;2523;51.058;6.922;2023-03-31T15:48:51;12.20;99.90
5009;DHT22;2523;51.058;6.922;2023-03-31T15:51:23;12.20;99.90
5009;DHT22;2523;51.058;6.922;2023-03-31T15:53:51;12.20;99.90
5009;DHT22;2523;51.058;6.922;2023-03-31T15:56:30;12.20;99.90
5009;DHT22;2523;51.058;6.922;2023-03-31T16:01:44;12.10;1.00
5009;DHT22;2523;51.058;6.922;2023-03-31T16:04:12;12.10;99.90
5009;DHT22;2523;51.058;6.922;2023-03-31T16:11:55;12.20;99.90
5009;DHT22;2523;51.058;6.922;2023-03-31T16:14:29;12.20;99.90
5009;DHT22;2523;51.058;6.922;2023-03-31T16:17:10;12.20;1.00
5009;DHT22;2523;51.058;6.922;2023-03-31T16:19:47;12.40;1.00
5009;DHT22;2523;51.058;6.922;2023-03-31T16:22:18;12.50;99.90
5009;DHT22;2523;51.058;6.922;2023-03-31T16:24:45;12.50;5.50
5009;DHT22;2523;51.058;6.922;2023-03-31T16:27:11;12.50;19.70
5009;DHT22;2523;51.058;6.922;2023-03-31T16:29:37;12.60;88.80
5009;DHT22;2523;51.058;6.922;2023-03-31T16:32:14;12.60;1.00
5009;DHT22;2523;51.058;6.922;2023-03-31T16:35:06;12.50;1.00
5009;DHT22;2523;51.058;6.922;2023-03-31T16:37:32;12.50;1.00
5009;DHT22;2523;51.058;6.922;2023-03-31T16:39:58;12.40;1.00
5009;DHT22;2523;51.058;6.922;2023-03-31T16:42:23;12.40;5.50
5009;DHT22;2523;51.058;6.922;2023-03-31T16:44:50;12.40;1.00
5009;DHT22;2523;51.058;6.922;2023-03-31T16:47:15;12.40;1.00
5009;DHT22;2523;51.058;6.922;2023-03-31T16:49:41;12.40;1.00
5009;DHT22;2523;51.058;6.922;2023-03-31T16:52:07;12.40;1.00
5009;DHT22;2523;51.058;6.922;2023-03-31T16:54:34;12.40;1.00
5009;DHT22;2523;51.058;6.922;2023-03-31T16:56:59;12.40;1.00
5009;DHT22;2523;51.058;6.922;2023-03-31T16:59:25;12.40;1.00
5009;DHT22;2523;51.058;6.922;2023-03-31T17:01:51;12.40;1.00
5009;DHT22;2523;51.058;6.922;2023-03-31T17:04:20;12.40;16.80
5009;DHT22;2523;51.058;6.922;2023-03-31T17:06:55;12.30;99.90
5009;DHT22;2523;51.058;6.922;2023-03-31T17:09:21;12.30;70.50
5009;DHT22;2523;51.058;6.922;2023-03-31T17:11:47;12.30;62.60
5009;DHT22;2523;51.058;6.922;2023-03-31T17:14:17;12.30;99.90
5009;DHT22;2523;51.058;6.922;2023-03-31T17:16:45;12.20;85.80
5009;DHT22;2523;51.058;6.922;2023-03-31T17:19:10;12.20;99.90
5009;DHT22;2523;51.058;6.922;2023-03-31T17:21:36;12.20;82.70
5009;DHT22;2523;51.058;6.922;2023-03-31T17:24:05;12.20;99.90
5009;DHT22;2523;51.058;6.922;2023-03-31T17:26:31;12.20;21.40
5009;DHT22;2523;51.058;6.922;2023-03-31T17:28:57;12.20;68.80
5009;DHT22;2523;51.058;6.922;2023-03-31T17:31:24;12.30;10.60
5009;DHT22;2523;51.058;6.922;2023-03-31T17:33:50;12.30;96.80
5009;DHT22;2523;51.058;6.922;2023-03-31T17:36:16;12.30;1.00
5009;DHT22;2523;51.058;6.922;2023-03-31T17:38:42;12.30;1.00
5009;DHT22;2523;51.058;6.922;2023-03-31T17:41:10;12.40;1.00
5009;DHT22;2523;51.058;6.922;2023-03-31T17:43:37;12.40;1.00
5009;DHT22;2523;51.058;6.922;2023-03-31T17:46:05;12.40;1.00
5009;DHT22;2523;51.058;6.922;2023-03-31T17:48:32;12.30;1.00
5009;DHT22;2523;51.058;6.922;2023-03-31T17:51:09;12.30;1.00
5009;DHT22;2523;51.058;6.922;2023-03-31T17:53:35;12.20;1.00
5009;DHT22;2523;51.058;6.922;2023-03-31T17:56:03;12.10;1.00
5009;DHT22;2523;51.058;6.922;2023-03-31T17:58:29;12.00;1.00
5009;DHT22;2523;51.058;6.922;2023-03-31T18:00:55;12.00;1.00
5009;DHT22;2523;51.058;6.922;2023-03-31T18:03:21;12.00;63.00
5009;DHT22;2523;51.058;6.922;2023-03-31T18:05:47;11.90;99.90
5009;DHT22;2523;51.058;6.922;2023-03-31T18:08:13;11.90;99.90
5009;DHT22;2523;51.058;6.922;2023-03-31T18:10:39;11.90;99.90
5009;DHT22;2523;51.058;6.922;2023-03-31T18:13:05;11.90;45.40
5009;DHT22;2523;51.058;6.922;2023-03-31T18:15:31;11.90;99.90
5009;DHT22;2523;51.058;6.922;2023-03-31T18:17:57;11.80;91.70
5009;DHT22;2523;51.058;6.922;2023-03-31T18:20:22;11.80;1.00
5009;DHT22;2523;51.058;6.922;2023-03-31T18:22:48;11.80;1.00
5009;DHT22;2523;51.058;6.922;2023-03-31T18:25:14;11.90;1.00
5009;DHT22;2523;51.058;6.922;2023-03-31T18:27:40;11.90;1.00
5009;DHT22;2523;51.058;6.922;2023-03-31T18:30:07;11.90;1.00
5009;DHT22;2523;51.058;6.922;2023-03-31T18:32:33;11.90;1.00
5009;DHT22;2523;51.058;6.922;2023-03-31T18:34:59;11.80;23.90
5009;DHT22;2523;51.058;6.922;2023-03-31T18:37:25;11.80;99.90
5009;DHT22;2523;51.058;6.922;2023-03-31T18:39:51;11.80;1.00
5009;DHT22;2523;51.058;6.922;2023-03-31T18:42:17;11.80;90.70
5009;DHT22;2523;51.058;6.922;2023-03-31T18:44:50;11.80;52.10
5009;DHT22;2523;51.058;6.922;2023-03-31T18:47:16;11.80;1.00
5009;DHT22;2523;51.058;6.922;2023-03-31T18:49:41;11.80;1.00
5009;DHT22;2523;51.058;6.922;2023-03-31T18:52:07;11.80;1.00
5009;DHT22;2523;51.058;6.922;2023-03-31T18:54:36;11.80;94.00
5009;DHT22;2523;51.058;6.922;2023-03-31T18:57:05;11.60;1.00